| time (UTC) | temp F | wind direction | speed MPH | gust MPH | rain 1hr in | rain 24hr in | rain mn in | humidity % | barometer mb |
| 20260507103704 | 39 | 291 | 0.0 | 2.0 | 0.00 | 0.00 | 0.00 | 87 | 1004.4 |
| 20260507103204 | 39 | 233 | 0.0 | 3.0 | 0.00 | 0.00 | 0.00 | 89 | 1004.4 |
| 20260507100204 | 39 | 261 | 0.0 | 3.0 | 0.00 | 0.00 | 0.00 | 92 | 1004.3 |
| 20260507080700 | 39 | 5 | 0.0 | 0.0 | 0.00 | 0.00 | 0.00 | 91 | 1004.1 |
| 20260507080201 | 39 | 5 | 0.0 | 3.0 | 0.00 | 0.00 | 0.00 | 91 | 1004.1 |
| 20260507073200 | 39 | 25 | 1.0 | 1.0 | 0.00 | 0.00 | 0.00 | 91 | 1004.0 |
| 20260507070700 | 39 | 25 | 0.0 | 1.0 | 0.00 | 0.00 | 0.00 | 91 | 1003.9 |
| 20260507070200 | 39 | 25 | 0.0 | 2.0 | 0.00 | 0.00 | 0.00 | 91 | 1004.0 |
| 20260507063701 | 39 | 25 | 0.0 | 0.0 | 0.00 | 0.00 | 0.00 | 90 | 1004.2 |
| 20260507063200 | 39 | 25 | 0.0 | 1.0 | 0.00 | 0.00 | 0.00 | 90 | 1004.1 |
| 20260507060700 | 40 | 25 | 0.0 | 3.0 | 0.00 | 0.00 | 0.00 | 89 | 1004.2 |
| 20260507060201 | 40 | 22 | 2.0 | 3.0 | 0.00 | 0.00 | 0.00 | 88 | 1004.2 |
| 20260507053700 | 42 | 120 | 0.0 | 0.0 | 0.00 | 0.00 | 0.00 | 86 | 1004.4 |
| 20260507053201 | 42 | 120 | 0.0 | 3.0 | 0.00 | 0.00 | 0.00 | 85 | 1004.5 |
| 20260507050701 | 42 | 147 | 1.0 | 2.0 | 0.00 | 0.00 | 0.00 | 85 | 1004.8 |
| 20260507050201 | 43 | 94 | 0.0 | 3.0 | 0.00 | 0.00 | 0.00 | 84 | 1004.8 |
| 20260507043700 | 45 | 220 | 0.0 | 0.0 | 0.00 | 0.00 | 0.00 | 79 | 1005.2 |
| 20260507043201 | 46 | 220 | 1.0 | 7.0 | 0.00 | 0.00 | 0.00 | 78 | 1005.2 |
| 20260507040701 | 43 | 239 | 1.0 | 3.0 | 0.00 | 0.00 | 0.00 | 86 | 1005.5 |
| 20260507033701 | 43 | 33 | 0.0 | 1.0 | 0.00 | 0.00 | 0.00 | 85 | 1005.5 |
| 20260507033201 | 43 | 39 | 0.0 | 2.0 | 0.00 | 0.01 | 0.00 | 85 | 1005.4 |
| 20260507030201 | 43 | 5 | 0.0 | 0.0 | 0.00 | 0.03 | 0.00 | 84 | 1005.1 |
| 20260507023702 | 43 | 5 | 1.0 | 1.0 | 0.00 | 0.07 | 0.00 | 83 | 1005.2 |
| 20260507023201 | 44 | 5 | 1.0 | 3.0 | 0.00 | 0.07 | 0.00 | 83 | 1005.2 |
| 20260507020701 | 46 | 104 | 0.0 | 2.0 | 0.00 | 0.08 | 0.00 | 80 | 1005.1 |
| 20260507013702 | 47 | 55 | 1.0 | 3.0 | 0.00 | 0.12 | 0.00 | 77 | 1005.1 |
| 20260507013201 | 48 | 90 | 2.0 | 6.0 | 0.00 | 0.12 | 0.00 | 78 | 1005.1 |
| 20260507010201 | 48 | 118 | 2.0 | 3.0 | 0.00 | 0.21 | 0.00 | 76 | 1005.2 |
| 20260507003202 | 48 | 115 | 3.0 | 7.0 | 0.00 | 0.22 | 0.00 | 76 | 1005.1 |
| 20260507000702 | 47 | 93 | 3.0 | 6.0 | 0.00 | 0.22 | 0.00 | 73 | 1005.1 |
| 20260506233702 | 53 | 146 | 1.0 | 3.0 | 0.00 | 0.22 | 0.00 | 62 | 1004.8 |
| 20260506233202 | 53 | 145 | 4.0 | 12.0 | 0.00 | 0.22 | 0.00 | 60 | 1004.7 |
| 20260506230702 | 55 | 145 | 5.0 | 9.0 | 0.00 | 0.22 | 0.00 | 55 | 1004.7 |
| 20260506230204 | 55 | 122 | 3.0 | 9.0 | 0.00 | 0.22 | 0.00 | 53 | 1004.7 |
| 20260506223202 | 56 | 105 | 3.0 | 6.0 | 0.00 | 0.22 | 0.00 | 50 | 1004.7 |
| 20260506213702 | 57 | 51 | 3.0 | 8.0 | 0.00 | 0.22 | 0.00 | 52 | 1004.8 |
| 20260506213202 | 57 | 116 | 5.0 | 9.0 | 0.00 | 0.22 | 0.00 | 51 | 1004.8 |
| 20260506203203 | 57 | 38 | 2.0 | 9.0 | 0.00 | 0.22 | 0.00 | 53 | 1005.1 |
| 20260506200702 | 55 | 82 | 4.0 | 8.0 | 0.00 | 0.30 | 0.00 | 59 | 1005.3 |
| 20260506193702 | 55 | 90 | 5.0 | 12.0 | 0.00 | 0.43 | 0.00 | 59 | 1005.3 |
| 20260506193202 | 55 | 93 | 5.0 | 10.0 | 0.00 | 0.44 | 0.00 | 57 | 1005.3 |
| 20260506190702 | 55 | 114 | 5.0 | 8.0 | 0.00 | 0.48 | 0.00 | 58 | 1005.4 |
| 20260506183702 | 55 | 58 | 5.0 | 9.0 | 0.00 | 0.48 | 0.00 | 61 | 1005.6 |
| 20260506180702 | 53 | 78 | 4.0 | 8.0 | 0.00 | 0.48 | 0.00 | 62 | 1005.9 |
| 20260506173202 | 53 | 76 | 6.0 | 10.0 | 0.00 | 0.49 | 0.00 | 63 | 1006.3 |
| 20260506170702 | 52 | 91 | 3.0 | 9.0 | 0.00 | 0.50 | 0.00 | 67 | 1006.7 |
| 20260506163703 | 51 | 65 | 6.0 | 9.0 | 0.00 | 0.50 | 0.00 | 73 | 1007.0 |
| 20260506160702 | 51 | 78 | 4.0 | 7.0 | 0.00 | 0.50 | 0.00 | 74 | 1007.6 |
| 20260506160203 | 51 | 60 | 3.0 | 8.0 | 0.00 | 0.50 | 0.00 | 75 | 1007.6 |
| 20260506150203 | 51 | 318 | 1.0 | 3.0 | 0.00 | 0.50 | 0.00 | 72 | 1007.8 |
| 20260506143703 | 50 | 325 | 1.0 | 2.0 | 0.00 | 0.50 | 0.00 | 83 | 1007.6 |
| 20260506140702 | 49 | 302 | 0.0 | 1.0 | 0.00 | 0.50 | 0.00 | 86 | 1007.6 |
| 20260506140203 | 48 | 302 | 1.0 | 2.0 | 0.00 | 0.50 | 0.00 | 88 | 1007.8 |
| 20260506133703 | 48 | 302 | 0.0 | 1.0 | 0.00 | 0.50 | 0.00 | 89 | 1007.8 |
| 20260506133203 | 48 | 302 | 0.0 | 3.0 | 0.00 | 0.50 | 0.00 | 90 | 1007.8 |
| 20260506130703 | 47 | 294 | 1.0 | 2.0 | 0.00 | 0.50 | 0.00 | 95 | 1007.7 |
| 20260506110204 | 41 | 101 | 0.0 | 1.0 | 0.00 | 0.50 | 0.00 | 95 | 1006.8 |